Aviation Digital Data Service (ADDS)

Output produced by METARs form (0214 UTC 19 October 2021)
found at http://www.aviationweather.gov/metar/data/
 
METAR text: KMCI 190153Z 16008KT 10SM FEW160 SCT220 13/07 A3000 RMK AO2 SLP156 T01330067
Conditions at: KMCI (KANSAS CITY/INTL, MO, US) observed 0153 UTC 19 October 2021
Temperature: 13.3°C (56°F)
Dewpoint: 6.7°C (44°F) [RH = 64%]
Pressure (altimeter): 30.00 inches Hg (1016.0 mb)
[Sea-level pressure: 1015.6 mb]
Winds: from the SSE (160 degrees) at 9 MPH (8 knots; 4.1 m/s)
Visibility: 10 or more miles (16+ km)
Ceiling: at least 12,000 feet AGL
Clouds: few clouds at 16000 feet AGL
scattered clouds at 22000 feet AGL
Weather: no significant weather observed at this time

METAR text: KMCI 190053Z 16009KT 10SM SCT160 16/06 A2999 RMK AO2 SLP152 T01610061
Conditions at: KMCI (KANSAS CITY/INTL, MO, US) observed 0053 UTC 19 October 2021
Temperature: 16.1°C (61°F)
Dewpoint: 6.1°C (43°F) [RH = 51%]
Pressure (altimeter): 29.99 inches Hg (1015.7 mb)
[Sea-level pressure: 1015.2 mb]
Winds: from the SSE (160 degrees) at 10 MPH (9 knots; 4.6 m/s)
Visibility: 10 or more miles (16+ km)
Ceiling: at least 12,000 feet AGL
Clouds: scattered clouds at 16000 feet AGL
Weather: no significant weather observed at this time

METAR text: KMCI 182353Z 17007KT 10SM SCT160 16/06 A2998 RMK AO2 SLP152 T01560056 10233 20156 56007
Conditions at: KMCI (KANSAS CITY/INTL, MO, US) observed 2353 UTC 18 October 2021
Temperature: 15.6°C (60°F)
Dewpoint: 5.6°C (42°F) [RH = 51%]
Pressure (altimeter): 29.98 inches Hg (1015.3 mb)
[Sea-level pressure: 1015.2 mb]
Winds: from the S (170 degrees) at 8 MPH (7 knots; 3.6 m/s)
Visibility: 10 or more miles (16+ km)
Ceiling: at least 12,000 feet AGL
Clouds: scattered clouds at 16000 feet AGL
Weather: no significant weather observed at this time

METAR text: KMCI 182253Z 18009KT 10SM SCT150 19/06 A2999 RMK AO2 SLP152 T01940061
Conditions at: KMCI (KANSAS CITY/INTL, MO, US) observed 2253 UTC 18 October 2021
Temperature: 19.4°C (67°F)
Dewpoint: 6.1°C (43°F) [RH = 42%]
Pressure (altimeter): 29.99 inches Hg (1015.7 mb)
[Sea-level pressure: 1015.2 mb]
Winds: from the S (180 degrees) at 10 MPH (9 knots; 4.6 m/s)
Visibility: 10 or more miles (16+ km)
Ceiling: at least 12,000 feet AGL
Clouds: scattered clouds at 15000 feet AGL
Weather: no significant weather observed at this time

METAR text: KMCI 182153Z 18015G24KT 10SM SCT150 22/06 A2999 RMK AO2 SLP153 T02170056
Conditions at: KMCI (KANSAS CITY/INTL, MO, US) observed 2153 UTC 18 October 2021
Temperature: 21.7°C (71°F)
Dewpoint: 5.6°C (42°F) [RH = 35%]
Pressure (altimeter): 29.99 inches Hg (1015.7 mb)
[Sea-level pressure: 1015.3 mb]
Winds: from the S (180 degrees) at 17 MPH (15 knots; 7.7 m/s)
gusting to 28 MPH (24 knots; 12.3 m/s)
Visibility: 10 or more miles (16+ km)
Ceiling: at least 12,000 feet AGL
Clouds: scattered clouds at 15000 feet AGL
Weather: no significant weather observed at this time

METAR text: KMCI 182053Z 18016G23KT 10SM CLR 23/05 A3000 RMK AO2 SLP155 60000 T02280050 56025
Conditions at: KMCI (KANSAS CITY/INTL, MO, US) observed 2053 UTC 18 October 2021
Temperature: 22.8°C (73°F)
Dewpoint: 5.0°C (41°F) [RH = 31%]
Pressure (altimeter): 30.00 inches Hg (1016.0 mb)
[Sea-level pressure: 1015.5 mb]
Winds: from the S (180 degrees) at 18 MPH (16 knots; 8.2 m/s)
gusting to 26 MPH (23 knots; 11.8 m/s)
Visibility: 10 or more miles (16+ km)
Ceiling: at least 12,000 feet AGL
Clouds: sky clear below 12,000 feet AGL
Weather: no significant weather observed at this time

METAR text: KMCI 181953Z 19015KT 10SM FEW250 23/06 A3002 RMK AO2 SLP162 T02280056
Conditions at: KMCI (KANSAS CITY/INTL, MO, US) observed 1953 UTC 18 October 2021
Temperature: 22.8°C (73°F)
Dewpoint: 5.6°C (42°F) [RH = 33%]
Pressure (altimeter): 30.02 inches Hg (1016.7 mb)
[Sea-level pressure: 1016.2 mb]
Winds: from the S (190 degrees) at 17 MPH (15 knots; 7.7 m/s)
Visibility: 10 or more miles (16+ km)
Ceiling: at least 12,000 feet AGL
Clouds: few clouds at 25000 feet AGL
Weather: no significant weather observed at this time

METAR text: KMCI 181853Z 19015G22KT 10SM CLR 23/06 A3005 RMK AO2 PK WND 20029/1830 SLP172 T02280056
Conditions at: KMCI (KANSAS CITY/INTL, MO, US) observed 1853 UTC 18 October 2021
Temperature: 22.8°C (73°F)
Dewpoint: 5.6°C (42°F) [RH = 33%]
Pressure (altimeter): 30.05 inches Hg (1017.7 mb)
[Sea-level pressure: 1017.2 mb]
Winds: from the S (190 degrees) at 17 MPH (15 knots; 7.7 m/s)
gusting to 25 MPH (22 knots; 11.3 m/s)
Visibility: 10 or more miles (16+ km)
Ceiling: at least 12,000 feet AGL
Clouds: sky clear below 12,000 feet AGL
Weather: no significant weather observed at this time

METAR text: KMCI 181753Z 19016G21KT 9SM CLR 22/06 A3008 RMK AO2 SLP182 T02220061 10222 20067 58011
Conditions at: KMCI (KANSAS CITY/INTL, MO, US) observed 1753 UTC 18 October 2021
Temperature: 22.2°C (72°F)
Dewpoint: 6.1°C (43°F) [RH = 35%]
Pressure (altimeter): 30.08 inches Hg (1018.7 mb)
[Sea-level pressure: 1018.2 mb]
Winds: from the S (190 degrees) at 18 MPH (16 knots; 8.2 m/s)
gusting to 24 MPH (21 knots; 10.8 m/s)
Visibility: 9 miles (14 km)
Ceiling: at least 12,000 feet AGL
Clouds: sky clear below 12,000 feet AGL
Weather: no significant weather observed at this time

METAR text: KMCI 181653Z 19013G20KT 8SM CLR 21/07 A3010 RMK AO2 SLP189 T02060072
Conditions at: KMCI (KANSAS CITY/INTL, MO, US) observed 1653 UTC 18 October 2021
Temperature: 20.6°C (69°F)
Dewpoint: 7.2°C (45°F) [RH = 42%]
Pressure (altimeter): 30.10 inches Hg (1019.4 mb)
[Sea-level pressure: 1018.9 mb]
Winds: from the S (190 degrees) at 15 MPH (13 knots; 6.7 m/s)
gusting to 23 MPH (20 knots; 10.3 m/s)
Visibility: 8 miles (13 km)
Ceiling: at least 12,000 feet AGL
Clouds: sky clear below 12,000 feet AGL
Weather: no significant weather observed at this time

METAR text: KMCI 181553Z 21008KT 10SM CLR 18/07 A3011 RMK AO2 SLP194 T01830067
Conditions at: KMCI (KANSAS CITY/INTL, MO, US) observed 1553 UTC 18 October 2021
Temperature: 18.3°C (65°F)
Dewpoint: 6.7°C (44°F) [RH = 47%]
Pressure (altimeter): 30.11 inches Hg (1019.7 mb)
[Sea-level pressure: 1019.4 mb]
Winds: from the SSW (210 degrees) at 9 MPH (8 knots; 4.1 m/s)
Visibility: 10 or more miles (16+ km)
Ceiling: at least 12,000 feet AGL
Clouds: sky clear below 12,000 feet AGL
Weather: no significant weather observed at this time

METAR text: KMCI 181453Z 20009KT 7SM CLR 16/07 A3012 RMK AO2 SLP194 T01560072 53009
Conditions at: KMCI (KANSAS CITY/INTL, MO, US) observed 1453 UTC 18 October 2021
Temperature: 15.6°C (60°F)
Dewpoint: 7.2°C (45°F) [RH = 57%]
Pressure (altimeter): 30.12 inches Hg (1020.1 mb)
[Sea-level pressure: 1019.4 mb]
Winds: from the SSW (200 degrees) at 10 MPH (9 knots; 4.6 m/s)
Visibility: 7 miles (11 km)
Ceiling: at least 12,000 feet AGL
Clouds: sky clear below 12,000 feet AGL
Weather: no significant weather observed at this time

METAR text: KMCI 181353Z 20007KT 10SM CLR 12/07 A3011 RMK AO2 SLP193 T01220072
Conditions at: KMCI (KANSAS CITY/INTL, MO, US) observed 1353 UTC 18 October 2021
Temperature: 12.2°C (54°F)
Dewpoint: 7.2°C (45°F) [RH = 71%]
Pressure (altimeter): 30.11 inches Hg (1019.7 mb)
[Sea-level pressure: 1019.3 mb]
Winds: from the SSW (200 degrees) at 8 MPH (7 knots; 3.6 m/s)
Visibility: 10 or more miles (16+ km)
Ceiling: at least 12,000 feet AGL
Clouds: sky clear below 12,000 feet AGL
Weather: no significant weather observed at this time

METAR text: KMCI 181301Z 18006KT 10SM CLR 09/06 A3010 RMK AO2 T00890056
Conditions at: KMCI (KANSAS CITY/INTL, MO, US) observed 1301 UTC 18 October 2021
Temperature: 8.9°C (48°F)
Dewpoint: 5.6°C (42°F) [RH = 80%]
Pressure (altimeter): 30.10 inches Hg (1019.4 mb)
Winds: from the S (180 degrees) at 7 MPH (6 knots; 3.1 m/s)
Visibility: 10 or more miles (16+ km)
Ceiling: at least 12,000 feet AGL
Clouds: sky clear below 12,000 feet AGL
Weather: no significant weather observed at this time

METAR text: KMCI 181300Z 18006KT 2 1/2SM CLR 09/06 A3010 RMK AO2 T00890056
Conditions at: KMCI (KANSAS CITY/INTL, MO, US) observed 1300 UTC 18 October 2021
Temperature: 8.9°C (48°F)
Dewpoint: 5.6°C (42°F) [RH = 80%]
Pressure (altimeter): 30.10 inches Hg (1019.4 mb)
Winds: from the S (180 degrees) at 7 MPH (6 knots; 3.1 m/s)
Visibility: 2.50 miles (4.02 km)
Ceiling: at least 12,000 feet AGL
Clouds: sky clear below 12,000 feet AGL
Weather: no significant weather observed at this time

METAR text: KMCI 181253Z 18006KT 10SM CLR 08/05 A3009 RMK AO2 SLP190 T00780050
Conditions at: KMCI (KANSAS CITY/INTL, MO, US) observed 1253 UTC 18 October 2021
Temperature: 7.8°C (46°F)
Dewpoint: 5.0°C (41°F) [RH = 82%]
Pressure (altimeter): 30.09 inches Hg (1019.0 mb)
[Sea-level pressure: 1019.0 mb]
Winds: from the S (180 degrees) at 7 MPH (6 knots; 3.1 m/s)
Visibility: 10 or more miles (16+ km)
Ceiling: at least 12,000 feet AGL
Clouds: sky clear below 12,000 feet AGL
Weather: no significant weather observed at this time

METAR text: KMCI 181153Z 19007KT 8SM CLR 08/05 A3009 RMK AO2 SLP187 T00780050 10100 20078 53003
Conditions at: KMCI (KANSAS CITY/INTL, MO, US) observed 1153 UTC 18 October 2021
Temperature: 7.8°C (46°F)
Dewpoint: 5.0°C (41°F) [RH = 82%]
Pressure (altimeter): 30.09 inches Hg (1019.0 mb)
[Sea-level pressure: 1018.7 mb]
Winds: from the S (190 degrees) at 8 MPH (7 knots; 3.6 m/s)
Visibility: 8 miles (13 km)
Ceiling: at least 12,000 feet AGL
Clouds: sky clear below 12,000 feet AGL
Weather: no significant weather observed at this time

METAR text: KMCI 181053Z 19006KT 10SM CLR 08/05 A3009 RMK AO2 SLP185 T00830050
Conditions at: KMCI (KANSAS CITY/INTL, MO, US) observed 1053 UTC 18 October 2021
Temperature: 8.3°C (47°F)
Dewpoint: 5.0°C (41°F) [RH = 80%]
Pressure (altimeter): 30.09 inches Hg (1019.0 mb)
[Sea-level pressure: 1018.5 mb]
Winds: from the S (190 degrees) at 7 MPH (6 knots; 3.1 m/s)
Visibility: 10 or more miles (16+ km)
Ceiling: at least 12,000 feet AGL
Clouds: sky clear below 12,000 feet AGL
Weather: no significant weather observed at this time

METAR text: KMCI 180953Z 19007KT 10SM CLR 09/06 A3008 RMK AO2 SLP182 T00890056
Conditions at: KMCI (KANSAS CITY/INTL, MO, US) observed 0953 UTC 18 October 2021
Temperature: 8.9°C (48°F)
Dewpoint: 5.6°C (42°F) [RH = 80%]
Pressure (altimeter): 30.08 inches Hg (1018.7 mb)
[Sea-level pressure: 1018.2 mb]
Winds: from the S (190 degrees) at 8 MPH (7 knots; 3.6 m/s)
Visibility: 10 or more miles (16+ km)
Ceiling: at least 12,000 feet AGL
Clouds: sky clear below 12,000 feet AGL
Weather: no significant weather observed at this time

METAR text: KMCI 180853Z 19007KT 10SM CLR 09/06 A3008 RMK AO2 SLP182 T00890056 58004
Conditions at: KMCI (KANSAS CITY/INTL, MO, US) observed 0853 UTC 18 October 2021
Temperature: 8.9°C (48°F)
Dewpoint: 5.6°C (42°F) [RH = 80%]
Pressure (altimeter): 30.08 inches Hg (1018.7 mb)
[Sea-level pressure: 1018.2 mb]
Winds: from the S (190 degrees) at 8 MPH (7 knots; 3.6 m/s)
Visibility: 10 or more miles (16+ km)
Ceiling: at least 12,000 feet AGL
Clouds: sky clear below 12,000 feet AGL
Weather: no significant weather observed at this time

METAR text: KMCI 180753Z 19007KT 10SM CLR 09/06 A3008 RMK AO2 SLP182 T00940056
Conditions at: KMCI (KANSAS CITY/INTL, MO, US) observed 0753 UTC 18 October 2021
Temperature: 9.4°C (49°F)
Dewpoint: 5.6°C (42°F) [RH = 77%]
Pressure (altimeter): 30.08 inches Hg (1018.7 mb)
[Sea-level pressure: 1018.2 mb]
Winds: from the S (190 degrees) at 8 MPH (7 knots; 3.6 m/s)
Visibility: 10 or more miles (16+ km)
Ceiling: at least 12,000 feet AGL
Clouds: sky clear below 12,000 feet AGL
Weather: no significant weather observed at this time

METAR text: KMCI 180653Z 18007KT 10SM CLR 09/06 A3009 RMK AO2 SLP186 T00940056
Conditions at: KMCI (KANSAS CITY/INTL, MO, US) observed 0653 UTC 18 October 2021
Temperature: 9.4°C (49°F)
Dewpoint: 5.6°C (42°F) [RH = 77%]
Pressure (altimeter): 30.09 inches Hg (1019.0 mb)
[Sea-level pressure: 1018.6 mb]
Winds: from the S (180 degrees) at 8 MPH (7 knots; 3.6 m/s)
Visibility: 10 or more miles (16+ km)
Ceiling: at least 12,000 feet AGL
Clouds: sky clear below 12,000 feet AGL
Weather: no significant weather observed at this time

METAR text: KMCI 180553Z 17009KT 10SM CLR 10/06 A3009 RMK AO2 SLP186 T01000061 10161 20100 402280050 58010
Conditions at: KMCI (KANSAS CITY/INTL, MO, US) observed 0553 UTC 18 October 2021
Temperature: 10.0°C (50°F)
Dewpoint: 6.1°C (43°F) [RH = 77%]
Pressure (altimeter): 30.09 inches Hg (1019.0 mb)
[Sea-level pressure: 1018.6 mb]
Winds: from the S (170 degrees) at 10 MPH (9 knots; 4.6 m/s)
Visibility: 10 or more miles (16+ km)
Ceiling: at least 12,000 feet AGL
Clouds: sky clear below 12,000 feet AGL
Weather: no significant weather observed at this time

METAR text: KMCI 180453Z 16008KT 10SM CLR 11/06 A3010 RMK AO2 SLP190 T01060061
Conditions at: KMCI (KANSAS CITY/INTL, MO, US) observed 0453 UTC 18 October 2021
Temperature: 10.6°C (51°F)
Dewpoint: 6.1°C (43°F) [RH = 74%]
Pressure (altimeter): 30.10 inches Hg (1019.4 mb)
[Sea-level pressure: 1019.0 mb]
Winds: from the SSE (160 degrees) at 9 MPH (8 knots; 4.1 m/s)
Visibility: 10 or more miles (16+ km)
Ceiling: at least 12,000 feet AGL
Clouds: sky clear below 12,000 feet AGL
Weather: no significant weather observed at this time

METAR text: KMCI 180353Z 15007KT 10SM CLR 11/06 A3012 RMK AO2 SLP196 T01110061
Conditions at: KMCI (KANSAS CITY/INTL, MO, US) observed 0353 UTC 18 October 2021
Temperature: 11.1°C (52°F)
Dewpoint: 6.1°C (43°F) [RH = 71%]
Pressure (altimeter): 30.12 inches Hg (1020.1 mb)
[Sea-level pressure: 1019.6 mb]
Winds: from the SSE (150 degrees) at 8 MPH (7 knots; 3.6 m/s)
Visibility: 10 or more miles (16+ km)
Ceiling: at least 12,000 feet AGL
Clouds: sky clear below 12,000 feet AGL
Weather: no significant weather observed at this time

METAR text: KMCI 180253Z 15006KT 10SM CLR 14/05 A3012 RMK AO2 SLP197 T01390050 55000
Conditions at: KMCI (KANSAS CITY/INTL, MO, US) observed 0253 UTC 18 October 2021
Temperature: 13.9°C (57°F)
Dewpoint: 5.0°C (41°F) [RH = 55%]
Pressure (altimeter): 30.12 inches Hg (1020.1 mb)
[Sea-level pressure: 1019.7 mb]
Winds: from the SSE (150 degrees) at 7 MPH (6 knots; 3.1 m/s)
Visibility: 10 or more miles (16+ km)
Ceiling: at least 12,000 feet AGL
Clouds: sky clear below 12,000 feet AGL
Weather: no significant weather observed at this time

METAR text: KMCI 180153Z 15006KT 10SM CLR 13/04 A3012 RMK AO2 SLP197 T01330044
Conditions at: KMCI (KANSAS CITY/INTL, MO, US) observed 0153 UTC 18 October 2021
Temperature: 13.3°C (56°F)
Dewpoint: 4.4°C (40°F) [RH = 55%]
Pressure (altimeter): 30.12 inches Hg (1020.1 mb)
[Sea-level pressure: 1019.7 mb]
Winds: from the SSE (150 degrees) at 7 MPH (6 knots; 3.1 m/s)
Visibility: 10 or more miles (16+ km)
Ceiling: at least 12,000 feet AGL
Clouds: sky clear below 12,000 feet AGL
Weather: no significant weather observed at this time

METAR text: KMCI 180053Z 16005KT 10SM CLR 14/05 A3012 RMK AO2 SLP198 T01390050
Conditions at: KMCI (KANSAS CITY/INTL, MO, US) observed 0053 UTC 18 October 2021
Temperature: 13.9°C (57°F)
Dewpoint: 5.0°C (41°F) [RH = 55%]
Pressure (altimeter): 30.12 inches Hg (1020.1 mb)
[Sea-level pressure: 1019.8 mb]
Winds: from the SSE (160 degrees) at 6 MPH (5 knots; 2.6 m/s)
Visibility: 10 or more miles (16+ km)
Ceiling: at least 12,000 feet AGL
Clouds: sky clear below 12,000 feet AGL
Weather: no significant weather observed at this time

METAR text: KMCI 172353Z 17004KT 10SM CLR 17/04 A3012 RMK AO2 SLP199 T01670044 10228 20167 57008
Conditions at: KMCI (KANSAS CITY/INTL, MO, US) observed 2353 UTC 17 October 2021
Temperature: 16.7°C (62°F)
Dewpoint: 4.4°C (40°F) [RH = 44%]
Pressure (altimeter): 30.12 inches Hg (1020.1 mb)
[Sea-level pressure: 1019.9 mb]
Winds: from the S (170 degrees) at 5 MPH (4 knots; 2.1 m/s)
Visibility: 10 or more miles (16+ km)
Ceiling: at least 12,000 feet AGL
Clouds: sky clear below 12,000 feet AGL
Weather: no significant weather observed at this time

METAR text: KMCI 172253Z 20005KT 10SM CLR 19/06 A3013 RMK AO2 SLP200 T01940056
Conditions at: KMCI (KANSAS CITY/INTL, MO, US) observed 2253 UTC 17 October 2021
Temperature: 19.4°C (67°F)
Dewpoint: 5.6°C (42°F) [RH = 40%]
Pressure (altimeter): 30.13 inches Hg (1020.4 mb)
[Sea-level pressure: 1020.0 mb]
Winds: from the SSW (200 degrees) at 6 MPH (5 knots; 2.6 m/s)
Visibility: 10 or more miles (16+ km)
Ceiling: at least 12,000 feet AGL
Clouds: sky clear below 12,000 feet AGL
Weather: no significant weather observed at this time

METAR text: KMCI 172153Z 20005KT 10SM CLR 21/04 A3014 RMK AO2 SLP204 T02110039
Conditions at: KMCI (KANSAS CITY/INTL, MO, US) observed 2153 UTC 17 October 2021
Temperature: 21.1°C (70°F)
Dewpoint: 3.9°C (39°F) [RH = 32%]
Pressure (altimeter): 30.14 inches Hg (1020.7 mb)
[Sea-level pressure: 1020.4 mb]
Winds: from the SSW (200 degrees) at 6 MPH (5 knots; 2.6 m/s)
Visibility: 10 or more miles (16+ km)
Ceiling: at least 12,000 feet AGL
Clouds: sky clear below 12,000 feet AGL
Weather: no significant weather observed at this time

METAR text: KMCI 172053Z 00000KT 10SM R19R/1200VP6000FT CLR 22/03 A3015 RMK AO2 SLP206 T02170028 56027
Conditions at: KMCI (KANSAS CITY/INTL, MO, US) observed 2053 UTC 17 October 2021
Temperature: 21.7°C (71°F)
Dewpoint: 2.8°C (37°F) [RH = 29%]
Pressure (altimeter): 30.15 inches Hg (1021.1 mb)
[Sea-level pressure: 1020.6 mb]
Winds: calm
Visibility: 10 or more miles (16+ km)
Ceiling: at least 12,000 feet AGL
Clouds: sky clear below 12,000 feet AGL
Weather: no significant weather observed at this time

METAR text: KMCI 171953Z 19005KT 10SM CLR 22/03 A3017 RMK AO2 SLP212 T02220028
Conditions at: KMCI (KANSAS CITY/INTL, MO, US) observed 1953 UTC 17 October 2021
Temperature: 22.2°C (72°F)
Dewpoint: 2.8°C (37°F) [RH = 28%]
Pressure (altimeter): 30.17 inches Hg (1021.8 mb)
[Sea-level pressure: 1021.2 mb]
Winds: from the S (190 degrees) at 6 MPH (5 knots; 2.6 m/s)
Visibility: 10 or more miles (16+ km)
Ceiling: at least 12,000 feet AGL
Clouds: sky clear below 12,000 feet AGL
Weather: no significant weather observed at this time

METAR text: KMCI 171853Z VRB05KT 10SM CLR 22/03 A3019 RMK AO2 SLP220 T02170033
Conditions at: KMCI (KANSAS CITY/INTL, MO, US) observed 1853 UTC 17 October 2021
Temperature: 21.7°C (71°F)
Dewpoint: 3.3°C (38°F) [RH = 30%]
Pressure (altimeter): 30.19 inches Hg (1022.4 mb)
[Sea-level pressure: 1022.0 mb]
Winds: variable direction winds at 6 MPH (5 knots; 2.6 m/s)
Visibility: 10 or more miles (16+ km)
Ceiling: at least 12,000 feet AGL
Clouds: sky clear below 12,000 feet AGL
Weather: no significant weather observed at this time

METAR text: KMCI 171753Z 15005KT 10SM CLR 21/01 A3023 RMK AO2 SLP234 T02060011 10206 20061 58008
Conditions at: KMCI (KANSAS CITY/INTL, MO, US) observed 1753 UTC 17 October 2021
Temperature: 20.6°C (69°F)
Dewpoint: 1.1°C (34°F) [RH = 27%]
Pressure (altimeter): 30.23 inches Hg (1023.8 mb)
[Sea-level pressure: 1023.4 mb]
Winds: from the SSE (150 degrees) at 6 MPH (5 knots; 2.6 m/s)
Visibility: 10 or more miles (16+ km)
Ceiling: at least 12,000 feet AGL
Clouds: sky clear below 12,000 feet AGL
Weather: no significant weather observed at this time

METAR text: KMCI 171653Z 17005KT 10SM R19R/4000VP6000FT CLR 20/03 A3025 RMK AO2 SLP238 T02000028
Conditions at: KMCI (KANSAS CITY/INTL, MO, US) observed 1653 UTC 17 October 2021
Temperature: 20.0°C (68°F)
Dewpoint: 2.8°C (37°F) [RH = 32%]
Pressure (altimeter): 30.25 inches Hg (1024.5 mb)
[Sea-level pressure: 1023.8 mb]
Winds: from the S (170 degrees) at 6 MPH (5 knots; 2.6 m/s)
Visibility: 10 or more miles (16+ km)
Ceiling: at least 12,000 feet AGL
Clouds: sky clear below 12,000 feet AGL
Weather: no significant weather observed at this time

METAR text: KMCI 171553Z 19005KT 10SM CLR 18/05 A3025 RMK AO2 SLP242 T01780050
Conditions at: KMCI (KANSAS CITY/INTL, MO, US) observed 1553 UTC 17 October 2021
Temperature: 17.8°C (64°F)
Dewpoint: 5.0°C (41°F) [RH = 43%]
Pressure (altimeter): 30.25 inches Hg (1024.5 mb)
[Sea-level pressure: 1024.2 mb]
Winds: from the S (190 degrees) at 6 MPH (5 knots; 2.6 m/s)
Visibility: 10 or more miles (16+ km)
Ceiling: at least 12,000 feet AGL
Clouds: sky clear below 12,000 feet AGL
Weather: no significant weather observed at this time

METAR text: KMCI 171453Z 20005KT 10SM CLR 13/04 A3026 RMK AO2 SLP243 T01330044 53004
Conditions at: KMCI (KANSAS CITY/INTL, MO, US) observed 1453 UTC 17 October 2021
Temperature: 13.3°C (56°F)
Dewpoint: 4.4°C (40°F) [RH = 55%]
Pressure (altimeter): 30.26 inches Hg (1024.8 mb)
[Sea-level pressure: 1024.3 mb]
Winds: from the SSW (200 degrees) at 6 MPH (5 knots; 2.6 m/s)
Visibility: 10 or more miles (16+ km)
Ceiling: at least 12,000 feet AGL
Clouds: sky clear below 12,000 feet AGL
Weather: no significant weather observed at this time

Forecast for: KMCI (KANSAS CITY/INTL, MO, US)
Text: KMCI 182320Z 1900/1924 17012KT P6SM SCT200
Forecast period: 0000 to 1500 UTC 19 October 2021
Forecast type: FROM: standard forecast or significant change
Winds: from the S (170 degrees) at 14 MPH (12 knots; 6.2 m/s)
Visibility: 6 or more miles (10+ km)
Ceiling: at least 12,000 feet AGL
Clouds: scattered clouds at 20000 feet AGL
Weather: no significant weather forecast for this period
Text: FM191500 19015G25KT P6SM SKC
Forecast period: 1500 to 2300 UTC 19 October 2021
Forecast type: FROM: standard forecast or significant change
Winds: from the S (190 degrees) at 17 MPH (15 knots; 7.7 m/s)
gusting to 29 MPH (25 knots; 12.9 m/s)
Visibility: 6 or more miles (10+ km)
Clouds: clear skies
Weather: no significant weather forecast for this period
Text: FM192300 18012KT P6SM SKC
Forecast period: 2300 UTC 19 October 2021 to 0000 UTC 20 October 2021
Forecast type: FROM: standard forecast or significant change
Winds: from the S (180 degrees) at 14 MPH (12 knots; 6.2 m/s)
Visibility: 6 or more miles (10+ km)
Clouds: clear skies
Weather: no significant weather forecast for this period